createdAt,value
2022-08-20T00:02:10.994Z,26.60
2022-08-20T00:04:39.430Z,26.60
2022-08-20T00:07:07.760Z,26.60
2022-08-20T00:09:36.605Z,26.60
2022-08-20T00:12:05.467Z,26.50
2022-08-20T00:14:33.919Z,26.60
2022-08-20T00:17:06.653Z,26.70
2022-08-20T00:19:35.382Z,26.80
2022-08-20T00:22:10.685Z,27.00
2022-08-20T00:24:38.197Z,27.20
2022-08-20T00:27:06.157Z,27.30
2022-08-20T00:29:36.833Z,27.40
2022-08-20T00:32:05.929Z,27.40
2022-08-20T00:34:33.140Z,27.40
2022-08-20T00:37:00.390Z,27.30
2022-08-20T00:39:27.625Z,27.20
2022-08-20T00:41:58.284Z,27.10
2022-08-20T00:44:25.441Z,27.00
2022-08-20T00:46:58.714Z,27.00
2022-08-20T00:49:32.509Z,26.90
2022-08-20T00:52:03.104Z,26.80
2022-08-20T00:54:39.393Z,26.80
2022-08-20T00:57:08.240Z,26.70
2022-08-20T00:59:37.826Z,26.70
2022-08-20T01:02:08.670Z,26.70
2022-08-20T01:04:39.244Z,26.70
2022-08-20T01:07:14.595Z,26.70
2022-08-20T01:09:57.707Z,26.60
2022-08-20T01:12:29.416Z,26.60
2022-08-20T01:14:58.889Z,26.60
2022-08-20T01:17:29.807Z,26.60
2022-08-20T01:20:01.972Z,26.50
2022-08-20T01:22:54.360Z,26.60
2022-08-20T01:25:27.040Z,26.70
2022-08-20T01:27:58.032Z,26.90
2022-08-20T01:30:31.785Z,27.00
2022-08-20T01:32:59.036Z,27.20
2022-08-20T01:35:26.434Z,27.30
2022-08-20T01:37:57.382Z,27.40
2022-08-20T01:40:31.595Z,27.40
2022-08-20T01:43:00.934Z,27.40
2022-08-20T01:45:31.462Z,27.30
2022-08-20T01:47:59.064Z,27.20
2022-08-20T01:50:26.951Z,27.10
2022-08-20T01:52:59.642Z,27.00
2022-08-20T01:55:29.347Z,26.90
2022-08-20T01:57:59.684Z,26.90
2022-08-20T02:00:32.102Z,26.80
2022-08-20T02:02:59.323Z,26.70
2022-08-20T02:05:29.932Z,26.70
2022-08-20T02:08:00.879Z,26.70
2022-08-20T02:10:28.792Z,26.70
2022-08-20T02:13:05.684Z,26.60
2022-08-20T02:15:37.253Z,26.60
2022-08-20T02:18:08.105Z,26.60
2022-08-20T02:20:36.264Z,26.50
2022-08-20T02:23:06.534Z,26.50
2022-08-20T02:25:35.096Z,26.50
2022-08-20T02:28:06.776Z,26.50
2022-08-20T02:30:37.392Z,26.50
2022-08-20T02:33:10.399Z,26.40
2022-08-20T02:35:42.821Z,26.60
2022-08-20T02:38:10.868Z,26.70
2022-08-20T02:40:38.316Z,26.80
2022-08-20T02:43:06.041Z,27.00
2022-08-20T02:45:45.249Z,27.10
2022-08-20T02:48:18.784Z,27.20
2022-08-20T02:50:46.036Z,27.30
2022-08-20T02:53:13.278Z,27.30
2022-08-20T02:55:43.560Z,27.20
2022-08-20T02:58:11.171Z,27.10
2022-08-20T03:00:40.239Z,27.10
2022-08-20T03:03:08.695Z,27.00
2022-08-20T03:05:39.185Z,26.90
2022-08-20T03:08:13.490Z,26.80
2022-08-20T03:10:44.455Z,26.80
2022-08-20T03:13:14.745Z,26.70
2022-08-20T03:15:42.874Z,26.70
2022-08-20T03:18:12.935Z,26.60
2022-08-20T03:20:40.411Z,26.60
2022-08-20T03:23:07.925Z,26.60
2022-08-20T03:25:35.265Z,26.60
2022-08-20T03:28:09.809Z,26.50
2022-08-20T03:30:41.232Z,26.50
2022-08-20T03:33:09.160Z,26.50
2022-08-20T03:35:39.012Z,26.40
2022-08-20T03:38:10.235Z,26.40
2022-08-20T03:40:37.419Z,26.40
2022-08-20T03:43:07.265Z,26.50
2022-08-20T03:45:34.522Z,26.60
2022-08-20T03:48:03.355Z,26.70
2022-08-20T03:50:31.739Z,26.90
2022-08-20T03:53:02.013Z,27.10
2022-08-20T03:55:37.915Z,27.20
2022-08-20T03:58:06.655Z,27.30
2022-08-20T04:00:35.580Z,27.30
2022-08-20T04:03:02.790Z,27.30
2022-08-20T04:05:35.226Z,27.20
2022-08-20T04:08:07.695Z,27.10
2022-08-20T04:10:37.862Z,27.00
2022-08-20T04:13:06.138Z,26.90
2022-08-20T04:15:34.921Z,26.80
2022-08-20T04:18:04.934Z,26.80
2022-08-20T04:20:32.266Z,26.70
2022-08-20T04:22:59.822Z,26.70
2022-08-20T04:25:35.787Z,26.60
2022-08-20T04:28:05.678Z,26.60
2022-08-20T04:30:33.604Z,26.60
2022-08-20T04:33:03.789Z,26.50
2022-08-20T04:35:33.846Z,26.50
2022-08-20T04:38:07.858Z,26.50
2022-08-20T04:40:53.439Z,26.40
2022-08-20T04:43:21.244Z,26.40
2022-08-20T04:45:53.020Z,26.10
2022-08-20T04:48:25.439Z,25.80
2022-08-20T04:50:53.898Z,25.60
2022-08-20T04:53:26.415Z,25.40
2022-08-20T04:56:01.712Z,25.30
2022-08-20T04:58:31.063Z,25.10
2022-08-20T05:01:03.429Z,25.00
2022-08-20T05:03:33.975Z,24.90
2022-08-20T05:06:02.018Z,24.90
2022-08-20T05:08:29.751Z,25.00
2022-08-20T05:11:07.216Z,25.00
2022-08-20T05:13:45.895Z,25.10
2022-08-20T05:16:12.890Z,25.20
2022-08-20T05:18:39.904Z,25.20
2022-08-20T05:21:08.360Z,25.10
2022-08-20T05:23:43.219Z,25.00
2022-08-20T05:26:10.846Z,24.90
2022-08-20T05:28:52.772Z,24.80
2022-08-20T05:31:31.529Z,24.70
2022-08-20T05:34:00.046Z,24.60
2022-08-20T05:36:27.250Z,24.50
2022-08-20T05:38:54.960Z,24.50
2022-08-20T05:41:29.092Z,24.40
2022-08-20T05:44:13.703Z,24.40
2022-08-20T05:46:43.812Z,24.40
2022-08-20T05:49:18.909Z,24.40
2022-08-20T05:51:49.015Z,24.30
2022-08-20T05:54:16.202Z,24.30
2022-08-20T05:56:43.346Z,24.20
2022-08-20T05:59:14.199Z,24.20
2022-08-20T06:01:44.288Z,24.20
2022-08-20T06:04:30.025Z,24.10
2022-08-20T06:07:00.218Z,24.10
2022-08-20T06:09:31.715Z,24.10
2022-08-20T06:12:03.311Z,24.00
2022-08-20T06:14:30.726Z,24.00
2022-08-20T06:17:05.477Z,24.00
2022-08-20T06:19:36.464Z,23.90
2022-08-20T06:22:08.728Z,24.00
2022-08-20T06:24:48.038Z,24.00
2022-08-20T06:27:15.797Z,24.00
2022-08-20T06:29:43.994Z,24.00
2022-08-20T06:32:13.229Z,24.00
2022-08-20T06:34:49.660Z,24.00
2022-08-20T06:37:21.762Z,24.00
2022-08-20T06:39:49.124Z,24.00
2022-08-20T06:42:20.894Z,24.00
2022-08-20T06:44:49.836Z,23.90
2022-08-20T06:47:19.732Z,23.90
2022-08-20T06:49:48.880Z,23.90
2022-08-20T06:52:18.846Z,23.90
2022-08-20T06:54:46.103Z,24.00
2022-08-20T06:57:14.345Z,24.10
2022-08-20T06:59:44.084Z,24.20
2022-08-20T07:02:15.968Z,24.30
2022-08-20T07:04:42.984Z,24.40
2022-08-20T07:07:15.826Z,24.40
2022-08-20T07:09:42.975Z,24.40
2022-08-20T07:12:10.846Z,24.40
2022-08-20T07:14:37.968Z,24.40
2022-08-20T07:17:05.451Z,24.40
2022-08-20T07:19:38.365Z,24.30
2022-08-20T07:22:07.200Z,24.30
2022-08-20T07:24:36.620Z,24.30
2022-08-20T07:27:08.649Z,24.30
2022-08-20T07:29:56.718Z,24.20
2022-08-20T07:32:39.332Z,24.20
2022-08-20T07:35:08.196Z,24.20
2022-08-20T07:37:42.294Z,24.20
2022-08-20T07:40:12.063Z,24.10
2022-08-20T07:42:45.538Z,24.10
2022-08-20T07:45:13.204Z,24.10
2022-08-20T07:47:42.519Z,24.10
2022-08-20T07:50:10.396Z,24.10
2022-08-20T07:52:39.387Z,24.10
2022-08-20T07:55:09.813Z,24.10
2022-08-20T07:57:40.012Z,24.10
2022-08-20T08:00:22.722Z,24.10
2022-08-20T08:02:52.286Z,24.10
2022-08-20T08:05:19.595Z,24.10
2022-08-20T08:07:46.805Z,24.10
2022-08-20T08:10:15.550Z,24.10
2022-08-20T08:12:43.576Z,24.10
2022-08-20T08:15:12.512Z,24.10
2022-08-20T08:17:39.592Z,24.10
2022-08-20T08:20:06.959Z,24.20
2022-08-20T08:22:37.221Z,24.40
2022-08-20T08:25:04.555Z,24.60
2022-08-20T08:27:37.239Z,24.80
2022-08-20T08:30:14.612Z,24.90
2022-08-20T08:33:02.261Z,25.00
2022-08-20T08:35:31.757Z,25.00
2022-08-20T08:38:00.148Z,25.00
2022-08-20T08:40:29.772Z,24.90
2022-08-20T08:42:58.578Z,24.80
2022-08-20T08:45:36.464Z,24.80
2022-08-20T08:48:03.789Z,24.70
2022-08-20T08:50:53.205Z,24.70
2022-08-20T08:53:22.024Z,24.70
2022-08-20T08:55:49.668Z,24.70
2022-08-20T08:58:17.878Z,24.70
2022-08-20T09:00:56.056Z,24.70
2022-08-20T09:03:29.483Z,24.60
2022-08-20T09:06:00.747Z,24.60
2022-08-20T09:08:32.850Z,24.60
2022-08-20T09:11:08.519Z,24.60
2022-08-20T09:13:40.004Z,24.60
2022-08-20T09:19:37.010Z,24.60
2022-08-20T09:22:14.337Z,24.60
2022-08-20T09:24:43.880Z,24.50
2022-08-20T09:27:11.179Z,24.60
2022-08-20T09:29:39.933Z,24.60
2022-08-20T09:32:11.436Z,24.70
2022-08-20T09:34:41.330Z,24.80
2022-08-20T09:37:14.880Z,24.80
2022-08-20T09:39:41.950Z,25.00
2022-08-20T09:42:09.713Z,25.10
2022-08-20T09:44:37.048Z,25.30
2022-08-20T09:47:04.472Z,25.40
2022-08-20T09:49:31.542Z,25.60
2022-08-20T09:51:59.181Z,25.70
2022-08-20T09:54:30.552Z,25.90
2022-08-20T09:57:01.799Z,25.90
2022-08-20T09:59:29.304Z,25.90
2022-08-20T10:01:56.149Z,25.80
2022-08-20T10:04:22.865Z,25.70
2022-08-20T10:06:49.622Z,25.60
2022-08-20T10:09:16.306Z,25.60
2022-08-20T10:11:43.009Z,25.50
2022-08-20T10:14:09.684Z,25.50
2022-08-20T10:16:36.468Z,25.40
2022-08-20T10:19:06.280Z,25.30
2022-08-20T10:21:36.737Z,25.30
2022-08-20T10:24:08.860Z,25.20
2022-08-20T10:26:35.543Z,25.20
2022-08-20T10:29:02.206Z,25.20
2022-08-20T10:31:28.919Z,25.20
2022-08-20T10:33:58.797Z,25.10
2022-08-20T10:36:25.550Z,25.10
2022-08-20T10:38:52.656Z,25.10
2022-08-20T10:41:20.006Z,25.10
2022-08-20T10:43:46.772Z,25.10
2022-08-20T10:46:13.817Z,25.10
2022-08-20T10:48:40.535Z,25.20
2022-08-20T10:51:07.370Z,25.40
2022-08-20T10:53:34.447Z,25.50
2022-08-20T10:56:01.182Z,25.60
2022-08-20T10:58:37.553Z,25.80
2022-08-20T11:01:06.801Z,25.90
2022-08-20T11:03:33.579Z,25.90
2022-08-20T11:06:00.487Z,25.80
2022-08-20T11:08:33.825Z,25.80
2022-08-20T11:11:01.794Z,25.70
2022-08-20T11:13:28.562Z,25.60
2022-08-20T11:15:55.346Z,25.60
2022-08-20T11:18:22.146Z,25.60
2022-08-20T11:20:48.841Z,25.50
2022-08-20T11:23:15.537Z,25.50
2022-08-20T11:25:42.265Z,25.50
2022-08-20T11:28:09.041Z,25.40
2022-08-20T11:30:36.307Z,25.40
2022-08-20T11:33:03.197Z,25.40
2022-08-20T11:35:49.771Z,25.40
2022-08-20T11:38:17.393Z,25.40
2022-08-20T11:40:44.106Z,25.40
2022-08-20T11:43:16.335Z,25.50
2022-08-20T11:45:44.469Z,25.40
2022-08-20T11:48:11.178Z,25.40
2022-08-20T11:50:37.907Z,25.50
2022-08-20T11:53:04.592Z,25.60
2022-08-20T11:55:32.560Z,25.70
2022-08-20T11:58:00.201Z,25.90
2022-08-20T12:00:31.946Z,26.00
2022-08-20T12:03:01.705Z,26.10
2022-08-20T12:05:29.958Z,26.10
2022-08-20T12:07:57.270Z,26.10
2022-08-20T12:10:26.704Z,26.10
2022-08-20T12:12:54.002Z,26.00
2022-08-20T12:15:20.695Z,25.90
2022-08-20T12:17:47.411Z,25.80
2022-08-20T12:20:15.426Z,25.80
2022-08-20T12:22:42.349Z,25.80
2022-08-20T12:25:09.346Z,25.70
2022-08-20T12:27:36.424Z,25.70
2022-08-20T12:30:05.138Z,25.70
2022-08-20T12:32:32.162Z,25.60
2022-08-20T12:34:59.003Z,25.60
2022-08-20T12:37:26.573Z,25.60
2022-08-20T12:39:54.565Z,25.60
2022-08-20T12:42:21.313Z,25.70
2022-08-20T12:44:48.223Z,25.60
2022-08-20T12:47:20.101Z,25.70
2022-08-20T12:49:47.845Z,25.70
2022-08-20T12:52:14.870Z,25.80
2022-08-20T12:54:41.542Z,26.00
2022-08-20T12:57:13.135Z,26.10
2022-08-20T12:59:39.827Z,26.30
2022-08-20T13:02:14.142Z,26.40
2022-08-20T13:04:45.825Z,26.40
2022-08-20T13:07:12.980Z,26.40
2022-08-20T13:09:40.473Z,26.40
2022-08-20T13:12:07.571Z,26.30
2022-08-20T13:14:34.603Z,26.20
2022-08-20T13:17:01.550Z,26.20
2022-08-20T13:19:30.028Z,26.10
2022-08-20T13:21:56.794Z,26.10
2022-08-20T13:24:23.558Z,26.10
2022-08-20T13:26:50.437Z,26.00
2022-08-20T13:29:17.316Z,26.00
2022-08-20T13:31:44.088Z,25.90
2022-08-20T13:34:10.870Z,25.90
2022-08-20T13:36:37.654Z,25.90
2022-08-20T13:39:04.830Z,25.90
2022-08-20T13:41:31.554Z,25.80
2022-08-20T13:43:58.238Z,25.90
2022-08-20T13:46:24.972Z,25.90
2022-08-20T13:48:51.713Z,25.80
2022-08-20T13:51:19.045Z,25.90
2022-08-20T13:53:46.391Z,26.00
2022-08-20T13:56:13.534Z,26.10
2022-08-20T13:58:41.287Z,26.20
2022-08-20T14:01:08.031Z,26.30
2022-08-20T14:03:35.182Z,26.40
2022-08-20T14:06:02.822Z,26.50
2022-08-20T14:08:29.547Z,26.50
2022-08-20T14:10:56.346Z,26.50
2022-08-20T14:13:23.735Z,26.40
2022-08-20T14:15:50.608Z,26.40
2022-08-20T14:18:17.307Z,26.30
2022-08-20T14:20:45.641Z,26.30
2022-08-20T14:23:12.682Z,26.20
2022-08-20T14:25:39.459Z,26.20
2022-08-20T14:28:13.764Z,26.10
2022-08-20T14:30:53.235Z,26.10
2022-08-20T14:33:21.323Z,26.10
2022-08-20T14:35:48.423Z,26.10
2022-08-20T14:38:17.826Z,26.10
2022-08-20T14:40:50.483Z,26.10
2022-08-20T14:43:20.014Z,26.10
2022-08-20T14:45:49.017Z,26.00
2022-08-20T14:48:17.983Z,26.00
2022-08-20T14:50:45.563Z,26.00
2022-08-20T14:53:16.446Z,26.10
2022-08-20T14:55:43.698Z,26.20
2022-08-20T14:58:14.357Z,26.30
2022-08-20T15:00:42.614Z,26.40
2022-08-20T15:03:09.732Z,26.50
2022-08-20T15:05:41.619Z,26.60
2022-08-20T15:08:11.158Z,26.40
2022-08-20T15:10:40.859Z,26.10
2022-08-20T15:13:08.094Z,25.80
2022-08-20T15:15:39.826Z,25.60
2022-08-20T15:18:11.419Z,25.40
2022-08-20T15:20:38.621Z,25.20
2022-08-20T15:25:49.367Z,25.00
2022-08-20T15:28:16.917Z,25.00
2022-08-20T15:30:44.233Z,25.00
2022-08-20T15:33:11.559Z,25.10
2022-08-20T15:35:41.003Z,25.20
2022-08-20T15:38:09.195Z,25.30
2022-08-20T15:40:40.435Z,25.30
2022-08-20T15:43:11.875Z,25.30
2022-08-20T15:45:41.544Z,25.20
2022-08-20T15:48:13.144Z,25.10
2022-08-20T15:50:53.341Z,25.00
2022-08-20T15:53:31.817Z,24.90
2022-08-20T15:56:11.288Z,24.80
2022-08-20T15:58:50.115Z,24.80
2022-08-20T16:01:25.666Z,24.70
2022-08-20T16:04:02.187Z,24.60
2022-08-20T16:06:31.237Z,24.70
2022-08-20T16:09:04.176Z,24.80
2022-08-20T16:11:47.935Z,24.90
2022-08-20T16:14:24.378Z,25.00
2022-08-20T16:17:08.194Z,25.20
2022-08-20T16:19:56.242Z,25.20
2022-08-20T16:22:24.143Z,25.20
2022-08-20T16:24:56.528Z,25.20
2022-08-20T16:27:29.939Z,25.00
2022-08-20T16:30:12.481Z,25.00
2022-08-20T16:32:44.004Z,25.00
2022-08-20T16:35:17.300Z,24.90
2022-08-20T16:38:08.501Z,24.90
2022-08-20T16:40:49.488Z,24.80
2022-08-20T16:43:47.760Z,24.80
2022-08-20T16:46:27.262Z,24.70
2022-08-20T16:48:58.928Z,24.70
2022-08-20T16:51:33.860Z,24.60
2022-08-20T16:54:07.286Z,24.60
2022-08-20T16:56:40.787Z,24.60
2022-08-20T16:59:12.374Z,24.60
2022-08-20T17:02:11.029Z,24.50
2022-08-20T17:04:50.548Z,24.60
2022-08-20T17:07:32.496Z,24.50
2022-08-20T17:10:20.768Z,24.70
2022-08-20T17:12:55.254Z,24.80
2022-08-20T17:15:30.605Z,24.90
2022-08-20T17:18:17.326Z,25.10
2022-08-20T17:20:48.722Z,25.30
2022-08-20T17:23:21.574Z,25.30
2022-08-20T17:25:56.585Z,25.30
2022-08-20T17:28:28.364Z,25.10
2022-08-20T17:30:59.315Z,25.00
2022-08-20T17:33:34.903Z,24.90
2022-08-20T17:36:12.107Z,24.80
2022-08-20T17:39:09.652Z,24.70
2022-08-20T17:41:39.408Z,24.70
2022-08-20T17:44:11.621Z,24.60
2022-08-20T17:46:43.346Z,24.60
2022-08-20T17:49:18.737Z,24.60
2022-08-20T17:51:53.490Z,24.60
2022-08-20T17:54:32.888Z,24.50
2022-08-20T17:57:04.914Z,24.50
2022-08-20T18:00:00.865Z,24.50
2022-08-20T18:02:37.676Z,24.40
2022-08-20T18:05:20.283Z,24.40
2022-08-20T18:08:08.986Z,24.40
2022-08-20T18:10:43.001Z,24.40
2022-08-20T18:13:19.806Z,24.40
2022-08-20T18:15:51.083Z,24.40
2022-08-20T18:18:28.847Z,24.40
2022-08-20T18:20:59.002Z,24.50
2022-08-20T18:23:30.548Z,24.70
2022-08-20T18:26:05.938Z,24.80
2022-08-20T18:28:38.396Z,24.90
2022-08-20T18:31:07.780Z,25.10
2022-08-20T18:33:38.823Z,25.20
2022-08-20T18:36:20.399Z,25.00
2022-08-20T18:38:59.211Z,24.90
2022-08-20T18:41:38.949Z,24.80
2022-08-20T18:44:10.577Z,24.80
2022-08-20T18:46:38.593Z,24.70
2022-08-20T18:49:06.976Z,24.60
2022-08-20T18:51:41.291Z,24.60
2022-08-20T18:54:09.358Z,24.50
2022-08-20T18:56:41.828Z,24.50
2022-08-20T18:59:17.626Z,24.40
2022-08-20T19:01:53.188Z,24.40
2022-08-20T19:04:33.598Z,24.40
2022-08-20T19:07:02.904Z,24.40
2022-08-20T19:09:37.213Z,24.40
2022-08-20T19:12:11.316Z,24.40
2022-08-20T19:14:44.819Z,24.30
2022-08-20T19:17:15.839Z,24.30
2022-08-20T19:19:45.483Z,24.30
2022-08-20T19:22:15.033Z,24.20
2022-08-20T19:24:44.591Z,24.20
2022-08-20T19:27:11.773Z,24.20
2022-08-20T19:29:56.573Z,24.10
2022-08-20T19:32:31.495Z,24.10
2022-08-20T19:35:07.815Z,24.10
2022-08-20T19:37:50.873Z,24.10
2022-08-20T19:40:26.089Z,24.00
2022-08-20T19:42:56.012Z,24.10
2022-08-20T19:45:35.403Z,24.20
2022-08-20T19:48:08.386Z,24.30
2022-08-20T19:50:48.987Z,24.40
2022-08-20T19:53:27.485Z,24.60
2022-08-20T19:56:05.211Z,24.80
2022-08-20T19:58:32.494Z,25.10
2022-08-20T20:01:00.912Z,25.30
2022-08-20T20:03:33.141Z,25.50
2022-08-20T20:06:19.322Z,25.70
2022-08-20T20:08:49.370Z,25.90
2022-08-20T20:11:19.466Z,26.10
2022-08-20T20:13:47.417Z,26.00
2022-08-20T20:16:17.788Z,25.90
2022-08-20T20:18:45.960Z,25.80
2022-08-20T20:21:17.308Z,25.80
2022-08-20T20:23:53.933Z,25.70
2022-08-20T20:26:23.690Z,25.60
2022-08-20T20:28:51.918Z,25.60
2022-08-20T20:31:31.032Z,25.60
2022-08-20T20:34:04.030Z,25.50
2022-08-20T20:36:36.822Z,25.50
2022-08-20T20:39:14.134Z,25.50
2022-08-20T20:41:52.914Z,25.50
2022-08-20T20:44:36.950Z,25.40
2022-08-20T20:47:15.274Z,25.40
2022-08-20T20:49:58.337Z,25.40
2022-08-20T20:52:29.465Z,25.40
2022-08-20T20:55:16.103Z,25.40
2022-08-20T20:57:43.167Z,25.40
2022-08-20T21:00:15.307Z,25.40
2022-08-20T21:02:42.609Z,25.40
2022-08-20T21:05:12.026Z,25.40
2022-08-20T21:08:07.938Z,25.40
2022-08-20T21:10:38.663Z,25.40
2022-08-20T21:13:17.529Z,25.40
2022-08-20T21:15:44.526Z,25.60
2022-08-20T21:18:11.573Z,25.70
2022-08-20T21:20:39.271Z,25.90
2022-08-20T21:23:06.385Z,26.10
2022-08-20T21:25:40.848Z,26.20
2022-08-20T21:28:07.990Z,26.40
2022-08-20T21:30:34.999Z,26.40
2022-08-20T21:33:02.157Z,26.40
2022-08-20T21:35:29.134Z,26.30
2022-08-20T21:37:56.205Z,26.20
2022-08-20T21:40:28.450Z,26.10
2022-08-20T21:42:59.102Z,26.00
2022-08-20T21:45:28.552Z,25.90
2022-08-20T21:47:56.994Z,25.80
2022-08-20T21:50:24.195Z,25.80
2022-08-20T21:52:58.019Z,25.80
2022-08-20T21:55:29.997Z,25.70
2022-08-20T21:57:57.917Z,25.70
2022-08-20T22:00:47.766Z,25.60
2022-08-20T22:03:16.533Z,25.60
2022-08-20T22:05:52.491Z,25.60
2022-08-20T22:08:19.663Z,25.60
2022-08-20T22:10:46.706Z,25.50
2022-08-20T22:13:14.169Z,25.50
2022-08-20T22:15:46.368Z,25.50
2022-08-20T22:18:13.490Z,25.50
2022-08-20T22:20:40.742Z,25.50
2022-08-20T22:23:07.919Z,25.50
2022-08-20T22:25:40.938Z,25.50
2022-08-20T22:28:07.690Z,25.50
2022-08-20T22:30:34.443Z,25.40
2022-08-20T22:33:02.109Z,25.40
2022-08-20T22:35:29.839Z,25.50
2022-08-20T22:37:56.568Z,25.60
2022-08-20T22:40:23.463Z,25.70
2022-08-20T22:42:50.216Z,25.90
2022-08-20T22:45:16.959Z,26.10
2022-08-20T22:47:43.716Z,26.30
2022-08-20T22:50:10.926Z,26.40
2022-08-20T22:52:38.018Z,26.50
2022-08-20T22:55:06.015Z,26.50
2022-08-20T22:57:35.891Z,26.40
2022-08-20T23:00:03.199Z,26.30
2022-08-20T23:02:29.891Z,26.20
2022-08-20T23:04:56.620Z,26.10
2022-08-20T23:07:23.402Z,26.00
2022-08-20T23:09:50.074Z,25.90
2022-08-20T23:12:16.770Z,25.90
2022-08-20T23:14:43.457Z,25.80
2022-08-20T23:17:13.458Z,25.80
2022-08-20T23:19:40.747Z,25.80
2022-08-20T23:22:07.503Z,25.70
2022-08-20T23:24:34.324Z,25.70
2022-08-20T23:27:01.042Z,25.70
2022-08-20T23:29:27.692Z,25.60
2022-08-20T23:31:55.046Z,25.60
2022-08-20T23:34:21.904Z,25.60
2022-08-20T23:36:48.592Z,25.60
2022-08-20T23:39:15.326Z,25.60
2022-08-20T23:41:47.559Z,25.60
2022-08-20T23:44:26.392Z,25.60
2022-08-20T23:46:57.610Z,25.60
2022-08-20T23:49:24.519Z,25.50
2022-08-20T23:51:51.217Z,25.50
2022-08-20T23:54:18.010Z,25.50
2022-08-20T23:56:44.697Z,25.50
2022-08-20T23:59:11.399Z,25.50
